Latest Weather Observations for Adelaide

IDS60801

Issued at 6:35 pm CDT Friday 21 November 2014 (issued every 30 minutes, with the page automatically refreshed every 10 minutes)

About weather observations | Map of weather stations | Latest weather observations for SA | Other Formats
Station Details ID: 023090 Name: KENT TOWN Lat: -34.92 Lon: 138.62 Height: 48.0 m
Data from the previous 72 hours. | See also: Recent months at Adelaide
Date/Time
CDT
Temp
°C
App
Temp
°C
Dew
Point
Rel
Hum
%
Delta-T
°C
Wind Press
QNH
hPa
Press
MSL
hPa
Rain
since 9 am
mm
Dir
 
Spd
km/h
Gust
km/h
Spd
kts
Gust
kts
21/06:30pm 25.6 23.3 4.9 26 10.5 WNW 6 9 3 5 1010.2 - 0.2
21/06:00pm 26.1 24.3 5.5 26 10.6 W 4 9 2 5 1010.5 1010.5 0.2
21/05:30pm 25.5 22.5 4.1 25 10.7 WSW 9 15 5 8 1010.6 - 0.2
21/05:00pm 25.2 22.2 4.2 25 10.5 NW 9 13 5 7 1010.6 - 0.2
21/04:30pm 26.1 22.6 7.0 29 10.1 W 15 20 8 11 1010.8 - 0.2
21/04:00pm 26.8 23.8 6.1 26 10.8 W 11 17 6 9 1010.8 - 0.2
21/03:30pm 25.1 22.3 5.2 27 10.1 NNW 9 19 5 10 1011.0 - 0.2
21/03:00pm 25.5 22.7 5.3 27 10.3 WNW 9 17 5 9 1011.4 1011.4 0.2
21/02:30pm 23.8 21.7 6.6 33 8.9 WNW 7 15 4 8 1011.8 - 0.2
21/02:00pm 23.2 20.5 5.6 32 8.9 WNW 9 19 5 10 1012.4 - 0.2
21/01:30pm 23.5 20.3 3.3 26 9.8 W 9 17 5 9 1013.0 - 0.2
21/01:00pm 22.8 19.8 6.1 34 8.5 NW 11 20 6 11 1013.3 - 0.2
21/12:30pm 21.9 18.8 7.4 39 7.5 WNW 13 20 7 11 1013.5 - 0.2
21/12:00pm 22.2 19.9 8.9 42 7.1 W 11 22 6 12 1013.6 1013.5 0.2
21/11:30am 21.8 19.4 8.8 43 6.9 WNW 11 17 6 9 1013.9 - 0.2
21/11:00am 21.1 18.5 7.8 42 6.9 W 11 22 6 12 1014.0 - 0.2
21/10:30am 20.0 18.1 9.0 49 5.8 NW 9 17 5 9 1014.0 - 0.2
21/10:00am 20.3 17.3 9.4 49 5.8 W 15 20 8 11 1014.0 - 0.0
21/09:30am 19.4 17.2 9.4 52 5.3 WNW 11 19 6 10 1013.8 - 0.0
21/09:00am 18.2 16.8 9.5 57 4.6 NNW 7 15 4 8 1013.6 1013.5 6.4
21/08:30am 17.4 15.7 9.8 61 4.0 NW 9 13 5 7 1013.3 - 6.4
21/08:00am 16.5 14.9 10.3 67 3.3 WNW 9 13 5 7 1013.4 - 6.4
21/07:30am 16.1 16.3 10.4 69 3.0 CALM 0 0 0 0 1013.2 - 6.4
21/07:00am 14.7 15.0 10.9 78 2.0 CALM 0 0 0 0 1012.9 - 6.4
21/06:30am 14.6 13.7 10.8 78 2.0 E 6 7 3 4 1012.1 - 6.4
21/06:00am 15.1 15.3 10.6 74 2.4 SSE 0 4 0 2 1012.3 1012.3 6.4
21/05:30am 15.2 15.4 10.7 74 2.4 CALM 0 0 0 0 1012.5 - 6.4
21/05:00am 15.1 14.0 10.6 74 2.4 S 7 9 4 5 1011.9 - 6.4
21/04:30am 15.1 14.1 11.0 76 2.2 S 7 11 4 6 1011.6 - 6.4
21/04:00am 15.1 14.1 11.0 76 2.2 S 7 11 4 6 1012.0 - 6.4
21/03:30am 15.3 14.3 11.0 75 2.3 SSW 7 11 4 6 1012.0 - 6.4
21/03:00am 15.6 14.3 11.1 74 2.4 SSW 9 17 5 9 1011.7 1011.7 6.4
21/02:30am 16.0 13.6 11.4 74 2.5 SSW 15 20 8 11 1011.9 - 6.4
21/02:00am 16.1 14.5 11.5 74 2.5 SW 11 20 6 11 1012.0 - 6.4
21/01:30am 16.2 14.2 11.6 74 2.5 SSW 13 20 7 11 1012.1 - 6.4
21/01:00am 16.3 14.4 11.9 75 2.4 SSW 13 20 7 11 1012.0 - 6.4
21/12:30am 16.3 14.6 12.5 78 2.1 SW 13 20 7 11 1012.1 - 6.4
21/12:00am 16.4 15.4 13.4 82 1.7 SW 11 17 6 9 1012.1 1012.1 6.4
 
Date/Time
CDT
Temp
°C
App
Temp
°C
Dew
Point
Rel
Hum
%
Delta-T
°C
Wind Press
QNH
hPa
Press
MSL
hPa
Rain
since 9 am
mm
Dir
 
Spd
km/h
Gust
km/h
Spd
kts
Gust
kts
20/11:30pm 16.4 16.7 15.0 91 0.8 SW 7 13 4 7 1011.8 - 6.4
20/11:00pm 16.2 15.8 15.3 94 0.5 SW 11 15 6 8 1011.8 - 6.4
20/10:30pm 16.6 15.9 15.4 93 0.7 SW 13 26 7 14 1011.9 - 6.4
20/10:00pm 17.1 16.0 15.4 90 1.0 WSW 15 26 8 14 1011.7 - 6.4
20/09:30pm 17.8 15.7 15.2 85 1.5 W 20 32 11 17 1011.5 - 6.4
20/09:00pm 18.0 16.8 15.1 83 1.7 WSW 15 24 8 13 1010.8 1010.8 6.4
20/08:30pm 18.1 17.3 15.0 82 1.8 WSW 13 24 7 13 1010.4 - 6.4
20/08:00pm 18.0 16.0 14.9 82 1.8 WSW 19 32 10 17 1010.1 - 6.4
20/07:30pm 18.1 16.9 15.0 82 1.8 SW 15 24 8 13 1009.6 - 6.4
20/07:00pm 18.4 17.0 14.6 78 2.2 SW 15 24 8 13 1009.3 - 6.4
20/06:30pm 19.0 17.6 14.5 75 2.6 SW 15 28 8 15 1008.9 - 6.2
20/06:00pm 21.1 19.5 13.9 63 4.2 SW 15 24 8 13 1008.3 1008.3 6.2
20/05:30pm 20.5 18.6 15.1 71 3.2 SW 19 28 10 15 1008.0 - 6.2
20/05:00pm 20.9 19.3 16.6 76 2.6 SW 20 30 11 16 1008.0 - 6.2
20/04:30pm 23.8 22.7 17.2 66 4.1 W 19 26 10 14 1007.6 - 6.2
20/04:00pm 24.1 23.0 18.6 71 3.5 W 22 32 12 17 1007.1 - 6.2
20/03:30pm 23.3 23.0 19.1 77 2.7 NW 19 28 10 15 1007.3 - 6.2
20/03:00pm 22.6 22.2 19.3 81 2.1 NW 20 32 11 17 1007.6 1007.6 6.2
20/02:30pm 21.5 21.3 19.3 87 1.4 NNW 19 28 10 15 1008.0 - 6.2
20/02:00pm 20.7 20.3 19.0 90 1.1 NNW 19 33 10 18 1008.2 - 6.2
20/01:30pm 20.4 20.1 19.1 92 0.8 NNW 19 30 10 16 1008.6 - 6.2
20/01:00pm 21.2 20.9 19.1 88 1.3 N 19 30 10 16 1008.5 - 5.8
20/12:30pm 20.1 19.1 18.8 92 0.8 N 22 32 12 17 1009.3 - 5.8
20/12:00pm 20.0 21.6 19.2 95 0.5 NNW 9 17 5 9 1009.4 1009.4 5.6
20/11:30am 19.9 19.7 18.6 92 0.8 NNW 17 24 9 13 1009.5 - 4.2
20/11:00am 20.8 21.7 18.4 86 1.5 N 11 17 6 9 1009.3 - 1.4
20/10:30am 20.8 21.4 17.7 82 1.9 N 11 17 6 9 1009.5 - 1.2
20/10:00am 20.8 21.9 18.1 84 1.7 NNW 9 20 5 11 1009.9 - 1.0
20/09:30am 21.1 21.2 17.5 80 2.2 WNW 13 20 7 11 1010.1 - 0.6
20/09:00am 22.3 23.8 18.0 76 2.7 W 7 11 4 6 1009.7 1009.7 0.2
20/08:30am 23.1 23.8 15.5 62 4.6 WNW 6 13 3 7 1009.6 - 0.0
20/08:00am 23.8 22.5 14.7 56 5.4 NNW 15 20 8 11 1009.4 - 0.0
20/07:30am 24.8 22.7 12.3 45 7.2 N 15 24 8 13 1008.3 - 0.0
20/07:00am 24.2 23.1 11.9 46 7.0 N 9 15 5 8 1007.7 - 0.0
20/06:30am 23.8 22.6 11.6 46 6.9 NNE 9 15 5 8 1007.1 - 0.0
20/06:00am 23.6 22.3 11.3 46 6.9 N 9 17 5 9 1006.3 1006.3 0.0
20/05:30am 23.9 24.5 11.8 46 6.9 CALM 0 6 0 3 1005.6 - 0.0
20/05:00am 24.8 24.5 11.6 43 7.5 SSW 4 9 2 5 1006.1 - 0.0
20/04:30am 25.5 24.2 9.8 37 8.7 WNW 7 20 4 11 1007.0 - 0.0
20/04:00am 25.8 24.6 7.9 32 9.6 E 4 9 2 5 1006.7 - 0.0
20/03:30am 26.9 22.8 4.1 23 11.5 NNW 15 24 8 13 1007.0 - 0.0
20/03:00am 29.0 23.4 0.9 16 13.6 NNW 20 28 11 15 1006.7 1006.7 0.0
20/02:30am 29.5 25.2 1.3 16 13.7 NNE 13 24 7 13 1006.0 - 0.0
20/02:00am 29.5 25.3 1.7 16 13.6 NNE 13 20 7 11 1005.9 - 0.0
20/01:30am 29.3 25.2 2.0 17 13.5 NNE 13 20 7 11 1006.2 - 0.0
20/01:00am 28.9 25.2 2.2 18 13.2 NNE 11 20 6 11 1006.5 - 0.0
20/12:30am 28.3 25.1 4.9 22 12.1 NE 11 20 6 11 1006.9 - 0.0
20/12:00am 28.6 24.6 2.7 19 12.9 NE 13 22 7 12 1007.2 1007.2 0.0
 
Date/Time
CDT
Temp
°C
App
Temp
°C
Dew
Point
Rel
Hum
%
Delta-T
°C
Wind Press
QNH
hPa
Press
MSL
hPa
Rain
since 9 am
mm
Dir
 
Spd
km/h
Gust
km/h
Spd
kts
Gust
kts
19/11:30pm 27.0 23.8 5.0 24 11.3 NE 11 17 6 9 1007.4 - 0.0
19/11:00pm 26.5 23.8 5.6 26 10.8 NE 9 13 5 7 1007.8 - 0.0
19/10:30pm 26.5 24.0 6.5 28 10.5 NE 9 11 5 6 1008.0 - 0.0
19/10:00pm 26.0 23.6 7.1 30 10.0 ENE 9 11 5 6 1008.0 - 0.0
19/09:30pm 26.7 24.3 6.9 28 10.5 ENE 9 11 5 6 1007.9 - 0.0
19/09:00pm 27.2 24.8 6.8 27 10.8 ENE 9 13 5 7 1008.0 1008.0 0.0
19/08:30pm 28.0 24.8 4.9 23 11.9 E 11 15 6 8 1008.1 - 0.0
19/08:00pm 28.4 25.8 6.0 24 11.8 E 9 13 5 7 1008.5 - 0.0
19/07:30pm 29.6 26.5 3.7 19 13.2 ENE 9 13 5 7 1008.5 - 0.0
19/07:00pm 30.3 27.8 3.7 18 13.6 NE 6 9 3 5 1009.1 - 0.0
19/06:30pm 30.9 28.8 1.7 15 14.5 NW 2 6 1 3 1009.5 - 0.0
19/06:00pm 31.3 28.3 2.2 15 14.6 NW 7 13 4 7 1009.6 1009.6 0.0
19/05:30pm 31.5 27.5 0.2 13 15.2 NW 11 20 6 11 1010.2 - 0.0
19/05:00pm 32.4 27.6 0.3 13 15.7 NW 15 24 8 13 1010.4 - 0.0
19/04:30pm 32.8 28.0 0.1 12 16.0 NNW 15 26 8 14 1010.9 - 0.0
19/04:00pm 32.2 26.5 -1.1 11 15.9 WNW 19 30 10 16 1011.3 - 0.0
19/03:30pm 32.2 26.5 -1.1 11 15.9 WNW 19 30 10 16 1011.6 - 0.0
19/03:00pm 32.7 26.9 -1.2 11 16.2 WNW 19 32 10 17 1012.2 1012.2 0.0
19/02:30pm 32.0 25.7 -1.3 11 15.8 NW 22 35 12 19 1012.8 - 0.0
19/02:00pm 32.4 26.7 -0.6 12 15.9 WNW 19 35 10 19 1013.1 - 0.0
19/01:30pm 31.2 24.9 -6.0 8 16.2 NNW 19 30 10 16 1013.5 - 0.0
19/01:00pm 30.8 24.5 -0.8 13 15.0 NW 22 30 12 16 1014.1 - 0.0
19/12:30pm 30.0 24.2 -1.6 13 14.7 NNW 19 32 10 17 1014.6 - 0.0
19/12:00pm 29.0 23.4 1.1 16 13.5 N 20 32 11 17 1014.9 1014.9 0.0
19/11:30am 28.8 23.6 2.6 18 13.0 NW 19 28 10 15 1015.1 - 0.0
19/11:00am 27.2 23.0 3.9 22 11.7 N 15 26 8 14 - - 0.0
19/10:30am 26.1 22.4 4.5 25 10.9 N 13 24 7 13 1015.5 - 0.0
19/10:00am 24.7 21.3 5.7 29 9.7 N 13 20 7 11 1016.3 - 0.0
19/09:30am 23.2 21.2 7.2 35 8.3 N 7 11 4 6 1016.2 - 0.0
19/09:00am 21.2 19.3 7.4 41 7.1 NNW 7 11 4 6 1016.8 1016.8 0.0
19/08:30am 18.9 17.7 8.2 50 5.5 ESE 4 9 2 5 1016.7 - 0.0
19/08:00am 17.4 17.0 8.2 54 4.7 CALM 0 0 0 0 1017.2 - 0.0
19/07:30am 15.5 13.9 8.2 62 3.7 NNW 6 9 3 5 1017.0 - 0.0
19/07:00am 13.2 11.9 7.7 69 2.7 N 4 9 2 5 1017.0 - 0.0
19/06:30am 11.7 11.4 8.5 81 1.6 CALM 0 0 0 0 1017.1 - 0.0
19/06:00am 11.4 11.1 8.6 83 1.4 CALM 0 0 0 0 1017.4 1017.4 0.0
19/05:30am 11.7 11.4 8.7 82 1.5 CALM 0 0 0 0 1017.2 - 0.0
19/05:00am 12.1 10.7 8.9 81 1.6 E 6 7 3 4 1017.3 - 0.0
19/04:30am 12.0 11.7 8.8 81 1.6 CALM 0 0 0 0 1018.0 - 0.0
19/04:00am 12.6 12.3 8.8 77 1.9 CALM 0 0 0 0 1018.0 - 0.0
19/03:30am 13.1 12.8 8.5 73 2.3 CALM 0 0 0 0 1017.9 - 0.0
19/03:00am 13.3 12.6 8.7 73 2.3 SE 2 7 1 4 1018.0 1018.0 0.0
19/02:30am 13.3 12.3 8.9 74 2.2 SSE 4 7 2 4 1018.5 - 0.0
19/02:00am 13.6 12.0 8.8 73 2.4 S 7 9 4 5 1018.8 - 0.0
19/01:30am 13.8 13.5 8.8 72 2.5 CALM 0 0 0 0 1019.1 - 0.0
19/01:00am 13.8 13.2 8.8 72 2.5 W 2 6 1 3 1019.3 - 0.0
19/12:30am 14.3 14.1 9.0 70 2.7 CALM 0 0 0 0 1019.8 - 0.0
19/12:00am 14.8 14.6 8.9 68 3.0 CALM 0 6 0 3 1020.2 1020.2 0.0
 
Date/Time
CDT
Temp
°C
App
Temp
°C
Dew
Point
Rel
Hum
%
Delta-T
°C
Wind Press
QNH
hPa
Press
MSL
hPa
Rain
since 9 am
mm
Dir
 
Spd
km/h
Gust
km/h
Spd
kts
Gust
kts
18/11:30pm 15.3 14.7 8.8 65 3.3 SE 2 7 1 4 1020.5 - 0.0
18/11:00pm 15.6 14.1 9.0 65 3.4 ESE 7 11 4 6 1020.5 - 0.0
18/10:30pm 16.2 15.6 9.0 62 3.7 E 2 7 1 4 1020.8 - 0.0
18/10:00pm 16.7 15.8 9.4 62 3.8 ENE 4 9 2 5 1020.6 - 0.0
18/09:30pm 17.2 17.0 9.1 59 4.2 CALM 0 0 0 0 1020.6 - 0.0
18/09:00pm 17.7 15.6 9.7 59 4.2 WSW 11 15 6 8 1020.6 1020.6 0.0
18/08:30pm 18.1 16.2 9.1 55 4.7 WSW 9 13 5 7 1020.2 - 0.0
18/08:00pm 18.3 15.7 7.9 50 5.3 SSW 11 15 6 8 1020.1 - 0.0
18/07:30pm 18.5 16.1 7.2 47 5.7 SW 9 13 5 7 1020.1 - 0.0
18/07:00pm 18.6 16.0 6.3 44 6.1 SW 9 13 5 7 1020.2 - 0.0

Other Formats:

Comma delimited format used in spreadsheet applications
http://www.bom.gov.au/fwo/IDS60801/IDS60801.94675.axf

JavaScript Object Notation format (JSON) in row-major order
http://www.bom.gov.au/fwo/IDS60801/IDS60801.94675.json